sensor_id;sensor_type;location;lat;lon;timestamp;temperature;humidity
5276;DHT22;2661;50.786;12.728;2022-08-25T00:01:19;16.50;99.90
5276;DHT22;2661;50.786;12.728;2022-08-25T00:03:48;16.60;99.90
5276;DHT22;2661;50.786;12.728;2022-08-25T00:06:15;16.40;99.90
5276;DHT22;2661;50.786;12.728;2022-08-25T00:08:42;16.40;99.90
5276;DHT22;2661;50.786;12.728;2022-08-25T00:11:12;16.60;99.90
5276;DHT22;2661;50.786;12.728;2022-08-25T00:13:41;16.40;99.90
5276;DHT22;2661;50.786;12.728;2022-08-25T00:16:09;16.40;99.90
5276;DHT22;2661;50.786;12.728;2022-08-25T00:18:38;16.50;99.90
5276;DHT22;2661;50.786;12.728;2022-08-25T00:21:05;16.30;99.90
5276;DHT22;2661;50.786;12.728;2022-08-25T00:23:32;16.30;99.90
5276;DHT22;2661;50.786;12.728;2022-08-25T00:26:00;16.10;99.90
5276;DHT22;2661;50.786;12.728;2022-08-25T00:28:26;16.00;99.90
5276;DHT22;2661;50.786;12.728;2022-08-25T00:33:27;16.00;99.90
5276;DHT22;2661;50.786;12.728;2022-08-25T00:35:56;16.00;99.90
5276;DHT22;2661;50.786;12.728;2022-08-25T00:38:23;15.90;99.90
5276;DHT22;2661;50.786;12.728;2022-08-25T00:40:50;16.00;99.90
5276;DHT22;2661;50.786;12.728;2022-08-25T00:46:03;15.90;99.90
5276;DHT22;2661;50.786;12.728;2022-08-25T00:48:30;15.80;99.90
5276;DHT22;2661;50.786;12.728;2022-08-25T00:50:57;15.80;99.90
5276;DHT22;2661;50.786;12.728;2022-08-25T00:53:24;15.70;99.90
5276;DHT22;2661;50.786;12.728;2022-08-25T00:55:50;15.70;99.90
5276;DHT22;2661;50.786;12.728;2022-08-25T00:58:19;15.70;99.90
5276;DHT22;2661;50.786;12.728;2022-08-25T01:00:48;15.70;99.90
5276;DHT22;2661;50.786;12.728;2022-08-25T01:03:17;15.70;99.90
5276;DHT22;2661;50.786;12.728;2022-08-25T01:05:45;15.60;99.90
5276;DHT22;2661;50.786;12.728;2022-08-25T01:08:12;15.80;99.90
5276;DHT22;2661;50.786;12.728;2022-08-25T01:10:42;15.80;99.90
5276;DHT22;2661;50.786;12.728;2022-08-25T01:13:12;15.90;99.90
5276;DHT22;2661;50.786;12.728;2022-08-25T01:15:42;16.00;99.90
5276;DHT22;2661;50.786;12.728;2022-08-25T01:18:09;16.10;99.90
5276;DHT22;2661;50.786;12.728;2022-08-25T01:20:37;16.00;99.90
5276;DHT22;2661;50.786;12.728;2022-08-25T01:23:04;15.90;99.90
5276;DHT22;2661;50.786;12.728;2022-08-25T01:28:09;15.70;99.90
5276;DHT22;2661;50.786;12.728;2022-08-25T01:30:36;15.70;99.90
5276;DHT22;2661;50.786;12.728;2022-08-25T01:33:04;15.70;99.90
5276;DHT22;2661;50.786;12.728;2022-08-25T01:35:31;15.60;99.90
5276;DHT22;2661;50.786;12.728;2022-08-25T01:38:01;15.50;99.90
5276;DHT22;2661;50.786;12.728;2022-08-25T01:40:29;15.70;99.90
5276;DHT22;2661;50.786;12.728;2022-08-25T01:43:01;15.70;99.90
5276;DHT22;2661;50.786;12.728;2022-08-25T01:45:29;15.60;99.90
5276;DHT22;2661;50.786;12.728;2022-08-25T01:47:55;15.40;99.90
5276;DHT22;2661;50.786;12.728;2022-08-25T01:50:22;15.40;99.90
5276;DHT22;2661;50.786;12.728;2022-08-25T01:52:59;15.30;99.90
5276;DHT22;2661;50.786;12.728;2022-08-25T01:55:28;15.20;99.90
5276;DHT22;2661;50.786;12.728;2022-08-25T01:57:57;15.40;1.00
5276;DHT22;2661;50.786;12.728;2022-08-25T02:00:24;15.20;99.90
5276;DHT22;2661;50.786;12.728;2022-08-25T02:02:51;15.30;1.00
5276;DHT22;2661;50.786;12.728;2022-08-25T02:05:20;15.30;1.00
5276;DHT22;2661;50.786;12.728;2022-08-25T02:07:49;15.20;99.90
5276;DHT22;2661;50.786;12.728;2022-08-25T02:10:16;15.30;99.90
5276;DHT22;2661;50.786;12.728;2022-08-25T02:12:43;15.30;99.90
5276;DHT22;2661;50.786;12.728;2022-08-25T02:15:09;15.20;99.90
5276;DHT22;2661;50.786;12.728;2022-08-25T02:17:37;15.20;99.90
5276;DHT22;2661;50.786;12.728;2022-08-25T02:20:05;15.20;99.90
5276;DHT22;2661;50.786;12.728;2022-08-25T02:22:32;15.30;99.90
5276;DHT22;2661;50.786;12.728;2022-08-25T02:24:59;15.20;99.90
5276;DHT22;2661;50.786;12.728;2022-08-25T02:27:25;15.20;99.90
5276;DHT22;2661;50.786;12.728;2022-08-25T02:29:52;15.20;99.90
5276;DHT22;2661;50.786;12.728;2022-08-25T02:32:19;15.20;99.90
5276;DHT22;2661;50.786;12.728;2022-08-25T02:34:46;15.20;99.90
5276;DHT22;2661;50.786;12.728;2022-08-25T02:37:13;15.20;99.90
5276;DHT22;2661;50.786;12.728;2022-08-25T02:39:40;15.30;99.90
5276;DHT22;2661;50.786;12.728;2022-08-25T02:42:07;15.40;99.90
5276;DHT22;2661;50.786;12.728;2022-08-25T02:44:33;15.30;99.90
5276;DHT22;2661;50.786;12.728;2022-08-25T02:47:00;15.30;99.90
5276;DHT22;2661;50.786;12.728;2022-08-25T02:49:28;15.20;99.90
5276;DHT22;2661;50.786;12.728;2022-08-25T02:51:55;15.10;99.90
5276;DHT22;2661;50.786;12.728;2022-08-25T02:54:24;15.30;99.90
5276;DHT22;2661;50.786;12.728;2022-08-25T02:56:51;15.30;99.90
5276;DHT22;2661;50.786;12.728;2022-08-25T02:59:18;15.30;99.90
5276;DHT22;2661;50.786;12.728;2022-08-25T03:01:45;15.30;99.90
5276;DHT22;2661;50.786;12.728;2022-08-25T03:04:12;15.30;99.90
5276;DHT22;2661;50.786;12.728;2022-08-25T03:06:39;15.30;99.90
5276;DHT22;2661;50.786;12.728;2022-08-25T03:09:06;15.40;99.90
5276;DHT22;2661;50.786;12.728;2022-08-25T03:11:33;15.40;99.90
5276;DHT22;2661;50.786;12.728;2022-08-25T03:14:00;15.40;99.90
5276;DHT22;2661;50.786;12.728;2022-08-25T03:16:26;15.40;99.90
5276;DHT22;2661;50.786;12.728;2022-08-25T03:18:54;15.40;99.90
5276;DHT22;2661;50.786;12.728;2022-08-25T03:21:21;15.30;99.90
5276;DHT22;2661;50.786;12.728;2022-08-25T03:23:48;15.10;99.90
5276;DHT22;2661;50.786;12.728;2022-08-25T03:26:14;15.10;99.90
5276;DHT22;2661;50.786;12.728;2022-08-25T03:29:00;14.90;99.90
5276;DHT22;2661;50.786;12.728;2022-08-25T03:31:31;14.90;99.90
5276;DHT22;2661;50.786;12.728;2022-08-25T03:33:58;15.00;1.00
5276;DHT22;2661;50.786;12.728;2022-08-25T03:36:25;15.00;99.90
5276;DHT22;2661;50.786;12.728;2022-08-25T03:38:52;14.90;99.90
5276;DHT22;2661;50.786;12.728;2022-08-25T03:41:22;14.90;99.90
5276;DHT22;2661;50.786;12.728;2022-08-25T03:43:53;14.80;99.90
5276;DHT22;2661;50.786;12.728;2022-08-25T03:46:25;14.80;99.90
5276;DHT22;2661;50.786;12.728;2022-08-25T03:48:52;15.00;99.90
5276;DHT22;2661;50.786;12.728;2022-08-25T03:51:20;15.10;99.90
5276;DHT22;2661;50.786;12.728;2022-08-25T03:53:47;15.00;99.90
5276;DHT22;2661;50.786;12.728;2022-08-25T03:56:13;14.90;99.90
5276;DHT22;2661;50.786;12.728;2022-08-25T03:58:40;14.90;99.90
5276;DHT22;2661;50.786;12.728;2022-08-25T04:01:07;14.90;99.90
5276;DHT22;2661;50.786;12.728;2022-08-25T04:03:35;15.00;99.90
5276;DHT22;2661;50.786;12.728;2022-08-25T04:06:03;15.10;99.90
5276;DHT22;2661;50.786;12.728;2022-08-25T04:08:30;15.10;99.90
5276;DHT22;2661;50.786;12.728;2022-08-25T04:10:56;15.10;99.90
5276;DHT22;2661;50.786;12.728;2022-08-25T04:13:23;15.10;99.90
5276;DHT22;2661;50.786;12.728;2022-08-25T04:15:50;14.90;99.90
5276;DHT22;2661;50.786;12.728;2022-08-25T04:18:17;14.90;99.90
5276;DHT22;2661;50.786;12.728;2022-08-25T04:20:44;14.80;99.90
5276;DHT22;2661;50.786;12.728;2022-08-25T04:23:12;14.80;99.90
5276;DHT22;2661;50.786;12.728;2022-08-25T04:25:39;14.70;99.90
5276;DHT22;2661;50.786;12.728;2022-08-25T04:28:11;14.80;99.90
5276;DHT22;2661;50.786;12.728;2022-08-25T04:30:40;14.70;99.90
5276;DHT22;2661;50.786;12.728;2022-08-25T04:33:07;14.70;1.00
5276;DHT22;2661;50.786;12.728;2022-08-25T04:35:34;14.70;1.00
5276;DHT22;2661;50.786;12.728;2022-08-25T04:38:00;14.70;99.90
5276;DHT22;2661;50.786;12.728;2022-08-25T04:40:28;14.80;1.00
5276;DHT22;2661;50.786;12.728;2022-08-25T04:42:55;14.80;99.90
5276;DHT22;2661;50.786;12.728;2022-08-25T04:45:21;14.80;1.00
5276;DHT22;2661;50.786;12.728;2022-08-25T04:47:48;14.80;1.00
5276;DHT22;2661;50.786;12.728;2022-08-25T04:50:20;14.90;1.00
5276;DHT22;2661;50.786;12.728;2022-08-25T04:52:47;14.80;99.90
5276;DHT22;2661;50.786;12.728;2022-08-25T04:55:14;14.80;99.90
5276;DHT22;2661;50.786;12.728;2022-08-25T04:57:41;14.80;1.00
5276;DHT22;2661;50.786;12.728;2022-08-25T05:00:08;14.90;1.00
5276;DHT22;2661;50.786;12.728;2022-08-25T05:02:35;14.90;1.00
5276;DHT22;2661;50.786;12.728;2022-08-25T05:05:02;14.90;1.00
5276;DHT22;2661;50.786;12.728;2022-08-25T05:07:29;15.00;1.00
5276;DHT22;2661;50.786;12.728;2022-08-25T05:09:56;15.00;1.00
5276;DHT22;2661;50.786;12.728;2022-08-25T05:12:23;15.10;1.00
5276;DHT22;2661;50.786;12.728;2022-08-25T05:14:52;15.10;1.00
5276;DHT22;2661;50.786;12.728;2022-08-25T05:17:20;15.20;1.00
5276;DHT22;2661;50.786;12.728;2022-08-25T05:19:48;15.30;99.90
5276;DHT22;2661;50.786;12.728;2022-08-25T05:22:14;15.40;99.90
5276;DHT22;2661;50.786;12.728;2022-08-25T05:24:41;15.50;99.90
5276;DHT22;2661;50.786;12.728;2022-08-25T05:27:08;15.50;99.90
5276;DHT22;2661;50.786;12.728;2022-08-25T05:29:34;15.50;99.90
5276;DHT22;2661;50.786;12.728;2022-08-25T05:32:01;15.60;1.00
5276;DHT22;2661;50.786;12.728;2022-08-25T05:34:28;15.80;1.00
5276;DHT22;2661;50.786;12.728;2022-08-25T05:36:55;15.90;1.00
5276;DHT22;2661;50.786;12.728;2022-08-25T05:39:25;16.00;10.50
5276;DHT22;2661;50.786;12.728;2022-08-25T05:41:52;16.10;99.90
5276;DHT22;2661;50.786;12.728;2022-08-25T05:44:19;16.30;99.90
5276;DHT22;2661;50.786;12.728;2022-08-25T05:46:47;16.30;1.00
5276;DHT22;2661;50.786;12.728;2022-08-25T05:49:13;16.40;99.90
5276;DHT22;2661;50.786;12.728;2022-08-25T05:51:40;16.50;18.40
5276;DHT22;2661;50.786;12.728;2022-08-25T05:54:07;16.50;27.40
5276;DHT22;2661;50.786;12.728;2022-08-25T05:56:33;16.60;1.00
5276;DHT22;2661;50.786;12.728;2022-08-25T05:59:00;16.70;99.90
5276;DHT22;2661;50.786;12.728;2022-08-25T06:01:32;16.90;99.90
5276;DHT22;2661;50.786;12.728;2022-08-25T06:04:18;16.90;1.00
5276;DHT22;2661;50.786;12.728;2022-08-25T06:06:45;17.10;1.00
5276;DHT22;2661;50.786;12.728;2022-08-25T06:09:14;17.10;1.00
5276;DHT22;2661;50.786;12.728;2022-08-25T06:11:40;17.00;1.00
5276;DHT22;2661;50.786;12.728;2022-08-25T06:14:08;17.20;1.00
5276;DHT22;2661;50.786;12.728;2022-08-25T06:16:35;17.20;1.00
5276;DHT22;2661;50.786;12.728;2022-08-25T06:19:03;17.30;1.00
5276;DHT22;2661;50.786;12.728;2022-08-25T06:21:30;17.30;1.00
5276;DHT22;2661;50.786;12.728;2022-08-25T06:23:56;17.30;1.00
5276;DHT22;2661;50.786;12.728;2022-08-25T06:26:23;17.40;1.00
5276;DHT22;2661;50.786;12.728;2022-08-25T06:28:50;17.40;1.00
5276;DHT22;2661;50.786;12.728;2022-08-25T06:31:17;17.60;1.00
5276;DHT22;2661;50.786;12.728;2022-08-25T06:33:45;17.50;3.10
5276;DHT22;2661;50.786;12.728;2022-08-25T06:36:12;17.60;1.00
5276;DHT22;2661;50.786;12.728;2022-08-25T06:38:38;17.70;1.00
5276;DHT22;2661;50.786;12.728;2022-08-25T06:41:06;17.70;1.00
5276;DHT22;2661;50.786;12.728;2022-08-25T06:43:33;17.90;1.00
5276;DHT22;2661;50.786;12.728;2022-08-25T06:46:19;17.90;1.00
5276;DHT22;2661;50.786;12.728;2022-08-25T06:48:47;17.90;1.00
5276;DHT22;2661;50.786;12.728;2022-08-25T06:51:15;18.10;1.00
5276;DHT22;2661;50.786;12.728;2022-08-25T06:53:43;18.20;1.00
5276;DHT22;2661;50.786;12.728;2022-08-25T06:56:11;18.30;1.00
5276;DHT22;2661;50.786;12.728;2022-08-25T06:58:38;18.30;1.00
5276;DHT22;2661;50.786;12.728;2022-08-25T07:01:15;18.30;1.00
5276;DHT22;2661;50.786;12.728;2022-08-25T07:03:46;18.40;1.00
5276;DHT22;2661;50.786;12.728;2022-08-25T07:06:13;18.40;1.00
5276;DHT22;2661;50.786;12.728;2022-08-25T07:08:44;18.40;1.00
5276;DHT22;2661;50.786;12.728;2022-08-25T07:11:11;18.40;1.00
5276;DHT22;2661;50.786;12.728;2022-08-25T07:13:43;18.50;1.00
5276;DHT22;2661;50.786;12.728;2022-08-25T07:16:10;18.60;1.00
5276;DHT22;2661;50.786;12.728;2022-08-25T07:18:37;18.70;1.00
5276;DHT22;2661;50.786;12.728;2022-08-25T07:21:04;18.70;1.00
5276;DHT22;2661;50.786;12.728;2022-08-25T07:23:35;18.80;1.00
5276;DHT22;2661;50.786;12.728;2022-08-25T07:26:15;18.90;1.00
5276;DHT22;2661;50.786;12.728;2022-08-25T07:29:13;18.90;99.90
5276;DHT22;2661;50.786;12.728;2022-08-25T07:31:40;19.10;99.90
5276;DHT22;2661;50.786;12.728;2022-08-25T07:34:07;19.40;99.90
5276;DHT22;2661;50.786;12.728;2022-08-25T07:36:54;19.60;99.90
5276;DHT22;2661;50.786;12.728;2022-08-25T07:39:21;19.80;99.90
5276;DHT22;2661;50.786;12.728;2022-08-25T07:41:49;19.80;99.90
5276;DHT22;2661;50.786;12.728;2022-08-25T07:44:18;20.00;99.90
5276;DHT22;2661;50.786;12.728;2022-08-25T07:46:45;20.00;99.90
5276;DHT22;2661;50.786;12.728;2022-08-25T07:49:12;20.20;99.90
5276;DHT22;2661;50.786;12.728;2022-08-25T07:51:43;20.20;99.90
5276;DHT22;2661;50.786;12.728;2022-08-25T07:54:30;20.30;99.90
5276;DHT22;2661;50.786;12.728;2022-08-25T07:57:01;20.40;99.90
5276;DHT22;2661;50.786;12.728;2022-08-25T07:59:28;20.50;99.90
5276;DHT22;2661;50.786;12.728;2022-08-25T08:02:05;20.60;99.90
5276;DHT22;2661;50.786;12.728;2022-08-25T08:04:34;20.70;99.90
5276;DHT22;2661;50.786;12.728;2022-08-25T08:07:01;20.70;99.90
5276;DHT22;2661;50.786;12.728;2022-08-25T08:09:27;20.80;99.90
5276;DHT22;2661;50.786;12.728;2022-08-25T08:11:56;20.80;99.90
5276;DHT22;2661;50.786;12.728;2022-08-25T08:14:23;20.90;99.90
5276;DHT22;2661;50.786;12.728;2022-08-25T08:16:50;21.00;99.90
5276;DHT22;2661;50.786;12.728;2022-08-25T08:19:16;21.00;99.90
5276;DHT22;2661;50.786;12.728;2022-08-25T08:21:48;21.10;99.90
5276;DHT22;2661;50.786;12.728;2022-08-25T08:24:17;21.10;99.90
5276;DHT22;2661;50.786;12.728;2022-08-25T08:27:05;21.20;99.90
5276;DHT22;2661;50.786;12.728;2022-08-25T08:29:33;21.20;99.90
5276;DHT22;2661;50.786;12.728;2022-08-25T08:32:04;21.20;99.90
5276;DHT22;2661;50.786;12.728;2022-08-25T08:34:31;21.30;99.90
5276;DHT22;2661;50.786;12.728;2022-08-25T08:36:58;21.40;99.90
5276;DHT22;2661;50.786;12.728;2022-08-25T08:39:25;21.40;99.90
5276;DHT22;2661;50.786;12.728;2022-08-25T08:42:02;21.40;99.90
5276;DHT22;2661;50.786;12.728;2022-08-25T08:47:34;21.60;99.90
5276;DHT22;2661;50.786;12.728;2022-08-25T08:55:43;21.80;99.90
5276;DHT22;2661;50.786;12.728;2022-08-25T08:58:23;21.80;99.90
5276;DHT22;2661;50.786;12.728;2022-08-25T09:00:53;21.80;99.90
5276;DHT22;2661;50.786;12.728;2022-08-25T09:05:51;21.90;99.90
5276;DHT22;2661;50.786;12.728;2022-08-25T09:08:19;21.90;99.90
5276;DHT22;2661;50.786;12.728;2022-08-25T09:16:40;22.00;99.90
5276;DHT22;2661;50.786;12.728;2022-08-25T09:29:22;22.10;99.90
5276;DHT22;2661;50.786;12.728;2022-08-25T09:31:50;22.10;98.00
5276;DHT22;2661;50.786;12.728;2022-08-25T09:34:22;22.20;99.90
5276;DHT22;2661;50.786;12.728;2022-08-25T09:36:49;22.40;97.90
5276;DHT22;2661;50.786;12.728;2022-08-25T09:39:19;22.40;99.90
5276;DHT22;2661;50.786;12.728;2022-08-25T09:41:47;22.40;99.90
5276;DHT22;2661;50.786;12.728;2022-08-25T09:49:20;22.50;99.90
5276;DHT22;2661;50.786;12.728;2022-08-25T09:51:47;22.50;99.90
5276;DHT22;2661;50.786;12.728;2022-08-25T09:54:19;22.60;99.90
5276;DHT22;2661;50.786;12.728;2022-08-25T09:56:52;22.70;99.90
5276;DHT22;2661;50.786;12.728;2022-08-25T09:59:23;22.80;99.90
5276;DHT22;2661;50.786;12.728;2022-08-25T10:02:05;22.80;99.90
5276;DHT22;2661;50.786;12.728;2022-08-25T10:04:45;23.00;99.90
5276;DHT22;2661;50.786;12.728;2022-08-25T10:07:23;23.00;99.90
5276;DHT22;2661;50.786;12.728;2022-08-25T10:09:56;23.10;99.90
5276;DHT22;2661;50.786;12.728;2022-08-25T10:12:28;23.10;99.90
5276;DHT22;2661;50.786;12.728;2022-08-25T10:14:54;23.10;99.90
5276;DHT22;2661;50.786;12.728;2022-08-25T10:17:24;23.20;99.90
5276;DHT22;2661;50.786;12.728;2022-08-25T10:19:54;23.10;99.90
5276;DHT22;2661;50.786;12.728;2022-08-25T10:22:23;23.20;99.90
5276;DHT22;2661;50.786;12.728;2022-08-25T10:24:52;23.20;99.90
5276;DHT22;2661;50.786;12.728;2022-08-25T10:30:09;23.40;99.90
5276;DHT22;2661;50.786;12.728;2022-08-25T10:32:51;23.40;99.90
5276;DHT22;2661;50.786;12.728;2022-08-25T10:35:25;23.50;99.90
5276;DHT22;2661;50.786;12.728;2022-08-25T10:40:22;23.60;99.90
5276;DHT22;2661;50.786;12.728;2022-08-25T10:43:04;23.60;99.90
5276;DHT22;2661;50.786;12.728;2022-08-25T10:45:54;23.50;99.90
5276;DHT22;2661;50.786;12.728;2022-08-25T10:50:58;23.60;99.90
5276;DHT22;2661;50.786;12.728;2022-08-25T10:53:41;23.70;99.90
5276;DHT22;2661;50.786;12.728;2022-08-25T10:56:11;23.80;99.90
5276;DHT22;2661;50.786;12.728;2022-08-25T11:04:14;24.00;99.90
5276;DHT22;2661;50.786;12.728;2022-08-25T11:06:57;24.00;99.90
5276;DHT22;2661;50.786;12.728;2022-08-25T11:09:27;24.00;99.90
5276;DHT22;2661;50.786;12.728;2022-08-25T11:11:59;23.90;99.90
5276;DHT22;2661;50.786;12.728;2022-08-25T11:17:21;23.90;99.90
5276;DHT22;2661;50.786;12.728;2022-08-25T11:19:52;23.90;99.90
5276;DHT22;2661;50.786;12.728;2022-08-25T11:25:14;23.90;99.90
5276;DHT22;2661;50.786;12.728;2022-08-25T11:27:49;24.00;99.90
5276;DHT22;2661;50.786;12.728;2022-08-25T11:30:18;24.10;99.90
5276;DHT22;2661;50.786;12.728;2022-08-25T11:32:49;24.10;99.90
5276;DHT22;2661;50.786;12.728;2022-08-25T11:35:17;24.00;99.90
5276;DHT22;2661;50.786;12.728;2022-08-25T11:37:52;23.90;99.90
5276;DHT22;2661;50.786;12.728;2022-08-25T11:40:29;23.80;99.90
5276;DHT22;2661;50.786;12.728;2022-08-25T11:43:13;23.70;99.90
5276;DHT22;2661;50.786;12.728;2022-08-25T11:48:49;24.10;99.90
5276;DHT22;2661;50.786;12.728;2022-08-25T11:51:34;24.30;99.90
5276;DHT22;2661;50.786;12.728;2022-08-25T11:56:36;24.40;99.90
5276;DHT22;2661;50.786;12.728;2022-08-25T11:59:06;24.50;99.90
5276;DHT22;2661;50.786;12.728;2022-08-25T12:04:30;24.60;99.90
5276;DHT22;2661;50.786;12.728;2022-08-25T12:09:32;24.70;30.40
5276;DHT22;2661;50.786;12.728;2022-08-25T12:12:26;24.70;99.90
5276;DHT22;2661;50.786;12.728;2022-08-25T12:14:47;24.60;99.90
5276;DHT22;2661;50.786;12.728;2022-08-25T12:17:18;24.60;99.90
5276;DHT22;2661;50.786;12.728;2022-08-25T12:19:51;24.60;99.90
5276;DHT22;2661;50.786;12.728;2022-08-25T12:27:31;24.80;82.20
5276;DHT22;2661;50.786;12.728;2022-08-25T12:30:24;25.00;99.90
5276;DHT22;2661;50.786;12.728;2022-08-25T12:35:55;25.40;99.90
5276;DHT22;2661;50.786;12.728;2022-08-25T12:38:26;25.60;99.90
5276;DHT22;2661;50.786;12.728;2022-08-25T12:40:59;25.80;99.90
5276;DHT22;2661;50.786;12.728;2022-08-25T12:43:29;26.00;99.90
5276;DHT22;2661;50.786;12.728;2022-08-25T12:48:56;26.10;99.90
5276;DHT22;2661;50.786;12.728;2022-08-25T12:51:47;26.20;99.90
5276;DHT22;2661;50.786;12.728;2022-08-25T12:57:00;26.00;99.90
5276;DHT22;2661;50.786;12.728;2022-08-25T12:59:35;25.90;99.90
5276;DHT22;2661;50.786;12.728;2022-08-25T13:02:11;25.90;79.40
5276;DHT22;2661;50.786;12.728;2022-08-25T13:07:35;25.80;99.90
5276;DHT22;2661;50.786;12.728;2022-08-25T13:13:06;25.70;99.90
5276;DHT22;2661;50.786;12.728;2022-08-25T13:20:49;25.70;99.90
5276;DHT22;2661;50.786;12.728;2022-08-25T13:23:19;25.60;99.90
5276;DHT22;2661;50.786;12.728;2022-08-25T13:25:48;25.60;98.30
5276;DHT22;2661;50.786;12.728;2022-08-25T13:28:22;25.70;99.90
5276;DHT22;2661;50.786;12.728;2022-08-25T13:31:34;25.80;99.90
5276;DHT22;2661;50.786;12.728;2022-08-25T13:33:51;25.80;99.90
5276;DHT22;2661;50.786;12.728;2022-08-25T13:36:20;25.80;99.90
5276;DHT22;2661;50.786;12.728;2022-08-25T13:39:23;26.00;99.90
5276;DHT22;2661;50.786;12.728;2022-08-25T13:42:12;26.10;99.90
5276;DHT22;2661;50.786;12.728;2022-08-25T13:44:40;26.20;99.90
5276;DHT22;2661;50.786;12.728;2022-08-25T13:47:30;26.20;99.90
5276;DHT22;2661;50.786;12.728;2022-08-25T13:52:45;26.20;99.90
5276;DHT22;2661;50.786;12.728;2022-08-25T13:55:17;26.20;99.90
5276;DHT22;2661;50.786;12.728;2022-08-25T13:57:45;26.30;99.90
5276;DHT22;2661;50.786;12.728;2022-08-25T14:00:12;26.30;99.90
5276;DHT22;2661;50.786;12.728;2022-08-25T14:02:57;26.30;99.90
5276;DHT22;2661;50.786;12.728;2022-08-25T14:05:32;26.30;99.90
5276;DHT22;2661;50.786;12.728;2022-08-25T14:08:02;26.20;99.90
5276;DHT22;2661;50.786;12.728;2022-08-25T14:10:50;26.10;99.90
5276;DHT22;2661;50.786;12.728;2022-08-25T14:13:28;26.00;99.90
5276;DHT22;2661;50.786;12.728;2022-08-25T14:18:45;26.10;99.90
5276;DHT22;2661;50.786;12.728;2022-08-25T14:21:14;26.00;99.90
5276;DHT22;2661;50.786;12.728;2022-08-25T14:23:40;26.20;99.90
5276;DHT22;2661;50.786;12.728;2022-08-25T14:26:07;26.20;99.90
5276;DHT22;2661;50.786;12.728;2022-08-25T14:28:34;26.20;99.90
5276;DHT22;2661;50.786;12.728;2022-08-25T14:31:04;26.30;99.90
5276;DHT22;2661;50.786;12.728;2022-08-25T14:33:35;26.40;99.90
5276;DHT22;2661;50.786;12.728;2022-08-25T14:36:03;26.50;99.90
5276;DHT22;2661;50.786;12.728;2022-08-25T14:38:31;26.60;99.90
5276;DHT22;2661;50.786;12.728;2022-08-25T14:40:58;26.70;99.90
5276;DHT22;2661;50.786;12.728;2022-08-25T14:43:26;26.60;99.90
5276;DHT22;2661;50.786;12.728;2022-08-25T14:45:58;26.60;99.90
5276;DHT22;2661;50.786;12.728;2022-08-25T14:48:32;26.60;99.90
5276;DHT22;2661;50.786;12.728;2022-08-25T14:51:02;26.50;99.90
5276;DHT22;2661;50.786;12.728;2022-08-25T14:53:29;26.50;99.90
5276;DHT22;2661;50.786;12.728;2022-08-25T14:55:55;26.40;99.90
5276;DHT22;2661;50.786;12.728;2022-08-25T14:58:25;26.30;99.90
5276;DHT22;2661;50.786;12.728;2022-08-25T15:00:52;26.30;99.90
5276;DHT22;2661;50.786;12.728;2022-08-25T15:03:21;26.10;99.90
5276;DHT22;2661;50.786;12.728;2022-08-25T15:05:50;26.00;99.90
5276;DHT22;2661;50.786;12.728;2022-08-25T15:08:17;26.00;99.90
5276;DHT22;2661;50.786;12.728;2022-08-25T15:11:03;26.00;99.90
5276;DHT22;2661;50.786;12.728;2022-08-25T15:13:34;26.10;99.90
5276;DHT22;2661;50.786;12.728;2022-08-25T15:16:02;26.20;99.90
5276;DHT22;2661;50.786;12.728;2022-08-25T15:18:29;26.30;99.90
5276;DHT22;2661;50.786;12.728;2022-08-25T15:20:56;26.30;99.90
5276;DHT22;2661;50.786;12.728;2022-08-25T15:23:23;26.30;99.90
5276;DHT22;2661;50.786;12.728;2022-08-25T15:25:49;26.30;99.90
5276;DHT22;2661;50.786;12.728;2022-08-25T15:28:19;26.30;99.90
5276;DHT22;2661;50.786;12.728;2022-08-25T15:30:48;26.30;99.90
5276;DHT22;2661;50.786;12.728;2022-08-25T15:33:14;26.20;99.90
5276;DHT22;2661;50.786;12.728;2022-08-25T15:35:41;26.10;99.90
5276;DHT22;2661;50.786;12.728;2022-08-25T15:38:10;26.10;99.90
5276;DHT22;2661;50.786;12.728;2022-08-25T15:40:37;26.00;99.90
5276;DHT22;2661;50.786;12.728;2022-08-25T15:43:05;25.90;99.90
5276;DHT22;2661;50.786;12.728;2022-08-25T15:45:33;25.90;99.90
5276;DHT22;2661;50.786;12.728;2022-08-25T15:48:02;26.00;99.90
5276;DHT22;2661;50.786;12.728;2022-08-25T15:50:29;26.10;99.90
5276;DHT22;2661;50.786;12.728;2022-08-25T15:52:55;26.30;99.90
5276;DHT22;2661;50.786;12.728;2022-08-25T15:55:23;26.50;99.90
5276;DHT22;2661;50.786;12.728;2022-08-25T15:57:50;26.60;99.90
5276;DHT22;2661;50.786;12.728;2022-08-25T16:00:17;26.70;99.90
5276;DHT22;2661;50.786;12.728;2022-08-25T16:02:47;26.70;99.90
5276;DHT22;2661;50.786;12.728;2022-08-25T16:05:13;26.80;99.90
5276;DHT22;2661;50.786;12.728;2022-08-25T16:07:42;26.80;99.90
5276;DHT22;2661;50.786;12.728;2022-08-25T16:10:16;26.70;99.90
5276;DHT22;2661;50.786;12.728;2022-08-25T16:12:43;26.70;99.90
5276;DHT22;2661;50.786;12.728;2022-08-25T16:15:10;26.60;99.90
5276;DHT22;2661;50.786;12.728;2022-08-25T16:17:38;26.60;99.90
5276;DHT22;2661;50.786;12.728;2022-08-25T16:20:09;26.60;99.90
5276;DHT22;2661;50.786;12.728;2022-08-25T16:22:39;26.60;99.90
5276;DHT22;2661;50.786;12.728;2022-08-25T16:25:06;26.50;99.90
5276;DHT22;2661;50.786;12.728;2022-08-25T16:27:33;26.40;99.90
5276;DHT22;2661;50.786;12.728;2022-08-25T16:30:05;26.30;99.90
5276;DHT22;2661;50.786;12.728;2022-08-25T16:32:39;26.20;99.90
5276;DHT22;2661;50.786;12.728;2022-08-25T16:35:07;26.10;99.90
5276;DHT22;2661;50.786;12.728;2022-08-25T16:37:36;26.00;99.90
5276;DHT22;2661;50.786;12.728;2022-08-25T16:40:03;25.90;99.90
5276;DHT22;2661;50.786;12.728;2022-08-25T16:42:30;25.80;99.90
5276;DHT22;2661;50.786;12.728;2022-08-25T16:44:58;25.80;99.90
5276;DHT22;2661;50.786;12.728;2022-08-25T16:47:25;25.70;99.90
5276;DHT22;2661;50.786;12.728;2022-08-25T16:49:52;25.60;99.90
5276;DHT22;2661;50.786;12.728;2022-08-25T16:52:19;25.60;99.90
5276;DHT22;2661;50.786;12.728;2022-08-25T16:55:06;25.60;99.90
5276;DHT22;2661;50.786;12.728;2022-08-25T16:57:44;25.60;99.90
5276;DHT22;2661;50.786;12.728;2022-08-25T17:00:14;25.60;99.90
5276;DHT22;2661;50.786;12.728;2022-08-25T17:02:41;25.60;99.90
5276;DHT22;2661;50.786;12.728;2022-08-25T17:05:09;25.60;99.90
5276;DHT22;2661;50.786;12.728;2022-08-25T17:07:36;25.60;99.90
5276;DHT22;2661;50.786;12.728;2022-08-25T17:10:03;25.50;99.90
5276;DHT22;2661;50.786;12.728;2022-08-25T17:12:31;25.60;99.90
5276;DHT22;2661;50.786;12.728;2022-08-25T17:14:58;25.60;99.90
5276;DHT22;2661;50.786;12.728;2022-08-25T17:17:24;25.60;99.90
5276;DHT22;2661;50.786;12.728;2022-08-25T17:19:52;25.60;99.90
5276;DHT22;2661;50.786;12.728;2022-08-25T17:22:20;25.50;99.90
5276;DHT22;2661;50.786;12.728;2022-08-25T17:24:49;25.40;99.90
5276;DHT22;2661;50.786;12.728;2022-08-25T17:27:26;25.40;99.90
5276;DHT22;2661;50.786;12.728;2022-08-25T17:29:52;25.30;99.90
5276;DHT22;2661;50.786;12.728;2022-08-25T17:32:21;25.10;99.90
5276;DHT22;2661;50.786;12.728;2022-08-25T17:34:56;25.00;99.90
5276;DHT22;2661;50.786;12.728;2022-08-25T17:37:23;25.00;99.90
5276;DHT22;2661;50.786;12.728;2022-08-25T17:39:50;24.80;99.90
5276;DHT22;2661;50.786;12.728;2022-08-25T17:42:28;24.60;99.90
5276;DHT22;2661;50.786;12.728;2022-08-25T17:44:55;24.50;99.90